sensor_id;sensor_type;location;lat;lon;timestamp;temperature;humidity
75049;DHT22;63803;53.120;8.764;2023-01-15T00:01:28;20.40;52.20
75049;DHT22;63803;53.120;8.764;2023-01-15T00:03:57;21.10;56.90
75049;DHT22;63803;53.120;8.764;2023-01-15T00:06:24;19.80;56.30
75049;DHT22;63803;53.120;8.764;2023-01-15T00:08:51;22.20;57.50
75049;DHT22;63803;53.120;8.764;2023-01-15T00:11:18;20.00;56.30
75049;DHT22;63803;53.120;8.764;2023-01-15T00:13:45;21.70;57.20
75049;DHT22;63803;53.120;8.764;2023-01-15T00:16:13;22.30;57.60
75049;DHT22;63803;53.120;8.764;2023-01-15T00:21:09;20.50;56.70
75049;DHT22;63803;53.120;8.764;2023-01-15T00:23:35;20.60;56.30
75049;DHT22;63803;53.120;8.764;2023-01-15T00:26:21;23.00;57.70
75049;DHT22;63803;53.120;8.764;2023-01-15T00:31:36;20.70;56.70
75049;DHT22;63803;53.120;8.764;2023-01-15T00:34:02;21.40;57.10
75049;DHT22;63803;53.120;8.764;2023-01-15T00:38:55;25.30;59.10
75049;DHT22;63803;53.120;8.764;2023-01-15T00:41:22;22.00;52.40
75049;DHT22;63803;53.120;8.764;2023-01-15T00:43:48;24.50;58.40
75049;DHT22;63803;53.120;8.764;2023-01-15T00:46:14;20.40;56.60
75049;DHT22;63803;53.120;8.764;2023-01-15T00:51:06;20.30;56.10
75049;DHT22;63803;53.120;8.764;2023-01-15T00:53:33;20.80;56.60
75049;DHT22;63803;53.120;8.764;2023-01-15T00:55:59;20.20;56.20
75049;DHT22;63803;53.120;8.764;2023-01-15T00:58:25;20.00;56.00
75049;DHT22;63803;53.120;8.764;2023-01-15T01:00:55;21.30;56.80
75049;DHT22;63803;53.120;8.764;2023-01-15T01:03:21;22.00;52.40
75049;DHT22;63803;53.120;8.764;2023-01-15T01:05:48;24.90;58.90
75049;DHT22;63803;53.120;8.764;2023-01-15T01:08:14;20.40;56.30
75049;DHT22;63803;53.120;8.764;2023-01-15T01:13:06;21.20;54.40
75049;DHT22;63803;53.120;8.764;2023-01-15T01:15:33;21.90;51.70
75049;DHT22;63803;53.120;8.764;2023-01-15T01:27:46;23.00;57.40
75049;DHT22;63803;53.120;8.764;2023-01-15T01:30:12;25.20;58.60
75049;DHT22;63803;53.120;8.764;2023-01-15T01:32:38;25.10;58.50
75049;DHT22;63803;53.120;8.764;2023-01-15T01:35:05;21.60;56.70
75049;DHT22;63803;53.120;8.764;2023-01-15T01:37:31;19.70;55.60
75049;DHT22;63803;53.120;8.764;2023-01-15T01:39:57;20.40;53.10
75049;DHT22;63803;53.120;8.764;2023-01-15T01:42:23;20.30;56.10
75049;DHT22;63803;53.120;8.764;2023-01-15T01:47:20;21.90;51.50
75049;DHT22;63803;53.120;8.764;2023-01-15T01:49:53;20.30;55.80
75049;DHT22;63803;53.120;8.764;2023-01-15T01:52:34;25.40;58.50
75049;DHT22;63803;53.120;8.764;2023-01-15T01:55:02;21.90;52.00
75049;DHT22;63803;53.120;8.764;2023-01-15T01:57:29;23.90;57.70
75049;DHT22;63803;53.120;8.764;2023-01-15T01:59:56;21.90;51.40
75049;DHT22;63803;53.120;8.764;2023-01-15T02:02:23;21.20;56.60
75049;DHT22;63803;53.120;8.764;2023-01-15T02:04:50;20.50;56.20
75049;DHT22;63803;53.120;8.764;2023-01-15T02:07:16;20.00;55.80
75049;DHT22;63803;53.120;8.764;2023-01-15T02:09:43;20.40;55.80
75049;DHT22;63803;53.120;8.764;2023-01-15T02:12:22;22.70;57.10
75049;DHT22;63803;53.120;8.764;2023-01-15T02:15:02;25.20;58.40
75049;DHT22;63803;53.120;8.764;2023-01-15T02:17:34;24.70;58.20
75049;DHT22;63803;53.120;8.764;2023-01-15T02:20:31;20.30;56.10
75049;DHT22;63803;53.120;8.764;2023-01-15T02:29:01;19.60;52.90
75049;DHT22;63803;53.120;8.764;2023-01-15T02:31:40;19.60;55.50
75049;DHT22;63803;53.120;8.764;2023-01-15T02:36:36;21.90;51.20
75049;DHT22;63803;53.120;8.764;2023-01-15T02:39:07;24.00;57.20
75049;DHT22;63803;53.120;8.764;2023-01-15T02:41:38;19.80;55.50
75049;DHT22;63803;53.120;8.764;2023-01-15T02:44:07;25.30;58.30
75049;DHT22;63803;53.120;8.764;2023-01-15T02:46:35;21.90;51.20
75049;DHT22;63803;53.120;8.764;2023-01-15T02:49:05;20.10;55.50
75049;DHT22;63803;53.120;8.764;2023-01-15T02:51:43;20.00;55.60
75049;DHT22;63803;53.120;8.764;2023-01-15T02:54:13;21.90;51.10
75049;DHT22;63803;53.120;8.764;2023-01-15T02:56:41;21.90;51.70
75049;DHT22;63803;53.120;8.764;2023-01-15T02:59:17;25.00;58.20
75049;DHT22;63803;53.120;8.764;2023-01-15T03:02:07;21.40;56.20
75049;DHT22;63803;53.120;8.764;2023-01-15T03:07:43;19.90;55.40
75049;DHT22;63803;53.120;8.764;2023-01-15T03:10:11;23.70;57.50
75049;DHT22;63803;53.120;8.764;2023-01-15T03:12:58;24.40;57.50
75049;DHT22;63803;53.120;8.764;2023-01-15T03:18:37;20.10;55.40
75049;DHT22;63803;53.120;8.764;2023-01-15T03:21:09;23.10;57.20
75049;DHT22;63803;53.120;8.764;2023-01-15T03:23:38;25.10;57.90
75049;DHT22;63803;53.120;8.764;2023-01-15T03:28:35;19.50;55.20
75049;DHT22;63803;53.120;8.764;2023-01-15T03:31:02;20.20;55.50
75049;DHT22;63803;53.120;8.764;2023-01-15T03:33:29;25.10;57.80
75049;DHT22;63803;53.120;8.764;2023-01-15T03:35:57;25.10;57.90
75049;DHT22;63803;53.120;8.764;2023-01-15T03:38:32;19.80;55.10
75049;DHT22;63803;53.120;8.764;2023-01-15T03:44:03;24.80;57.80
75049;DHT22;63803;53.120;8.764;2023-01-15T03:52:00;21.90;56.20
75049;DHT22;63803;53.120;8.764;2023-01-15T04:00:26;21.90;50.90
75049;DHT22;63803;53.120;8.764;2023-01-15T04:02:54;19.70;55.00
75049;DHT22;63803;53.120;8.764;2023-01-15T04:05:21;19.90;55.10
75049;DHT22;63803;53.120;8.764;2023-01-15T04:07:50;20.70;51.00
75049;DHT22;63803;53.120;8.764;2023-01-15T04:10:16;20.00;54.90
75049;DHT22;63803;53.120;8.764;2023-01-15T04:12:43;20.00;55.10
75049;DHT22;63803;53.120;8.764;2023-01-15T04:15:10;20.60;50.80
75049;DHT22;63803;53.120;8.764;2023-01-15T04:17:37;20.50;55.10
75049;DHT22;63803;53.120;8.764;2023-01-15T04:20:03;20.40;55.20
75049;DHT22;63803;53.120;8.764;2023-01-15T04:22:30;20.00;54.90
75049;DHT22;63803;53.120;8.764;2023-01-15T04:24:56;25.30;57.70
75049;DHT22;63803;53.120;8.764;2023-01-15T04:27:22;25.10;58.80
75049;DHT22;63803;53.120;8.764;2023-01-15T04:29:48;22.10;55.40
75049;DHT22;63803;53.120;8.764;2023-01-15T04:32:14;24.20;57.60
75049;DHT22;63803;53.120;8.764;2023-01-15T04:34:40;25.70;58.90
75049;DHT22;63803;53.120;8.764;2023-01-15T04:37:07;21.50;56.50
75049;DHT22;63803;53.120;8.764;2023-01-15T04:39:33;21.80;52.30
75049;DHT22;63803;53.120;8.764;2023-01-15T04:41:59;25.00;57.90
75049;DHT22;63803;53.120;8.764;2023-01-15T04:44:43;23.30;57.00
75049;DHT22;63803;53.120;8.764;2023-01-15T04:47:09;20.90;55.60
75049;DHT22;63803;53.120;8.764;2023-01-15T04:52:02;19.60;55.30
75049;DHT22;63803;53.120;8.764;2023-01-15T04:56:55;21.90;56.20
75049;DHT22;63803;53.120;8.764;2023-01-15T04:59:23;21.80;51.00
75049;DHT22;63803;53.120;8.764;2023-01-15T05:01:50;19.90;55.00
75049;DHT22;63803;53.120;8.764;2023-01-15T05:04:16;23.60;57.20
75049;DHT22;63803;53.120;8.764;2023-01-15T05:06:42;21.20;55.60
75049;DHT22;63803;53.120;8.764;2023-01-15T05:09:08;24.80;58.10
75049;DHT22;63803;53.120;8.764;2023-01-15T05:11:36;23.80;57.50
75049;DHT22;63803;53.120;8.764;2023-01-15T05:16:29;19.70;54.90
75049;DHT22;63803;53.120;8.764;2023-01-15T05:18:59;20.90;55.60
75049;DHT22;63803;53.120;8.764;2023-01-15T05:21:32;25.20;57.70
75049;DHT22;63803;53.120;8.764;2023-01-15T05:24:00;21.90;56.70
75049;DHT22;63803;53.120;8.764;2023-01-15T05:26:29;19.80;54.90
75049;DHT22;63803;53.120;8.764;2023-01-15T05:28:57;21.90;50.80
75049;DHT22;63803;53.120;8.764;2023-01-15T05:31:25;21.90;50.80
75049;DHT22;63803;53.120;8.764;2023-01-15T05:36:21;19.40;54.80
75049;DHT22;63803;53.120;8.764;2023-01-15T05:38:48;19.90;55.10
75049;DHT22;63803;53.120;8.764;2023-01-15T05:41:16;23.20;56.40
75049;DHT22;63803;53.120;8.764;2023-01-15T05:44:03;23.80;57.30
75049;DHT22;63803;53.120;8.764;2023-01-15T05:46:31;20.30;55.30
75049;DHT22;63803;53.120;8.764;2023-01-15T05:49:06;20.10;54.80
75049;DHT22;63803;53.120;8.764;2023-01-15T05:51:34;20.20;54.90
75049;DHT22;63803;53.120;8.764;2023-01-15T05:54:02;25.30;57.60
75049;DHT22;63803;53.120;8.764;2023-01-15T05:56:34;20.00;55.00
75049;DHT22;63803;53.120;8.764;2023-01-15T06:01:27;24.00;56.80
75049;DHT22;63803;53.120;8.764;2023-01-15T06:03:56;21.90;51.20
75049;DHT22;63803;53.120;8.764;2023-01-15T06:06:22;21.90;51.10
75049;DHT22;63803;53.120;8.764;2023-01-15T06:08:48;19.90;54.90
75049;DHT22;63803;53.120;8.764;2023-01-15T06:11:14;21.10;55.30
75049;DHT22;63803;53.120;8.764;2023-01-15T06:13:40;20.20;54.90
75049;DHT22;63803;53.120;8.764;2023-01-15T06:16:07;20.90;55.10
75049;DHT22;63803;53.120;8.764;2023-01-15T06:18:36;25.30;57.40
75049;DHT22;63803;53.120;8.764;2023-01-15T06:21:04;20.10;54.70
75049;DHT22;63803;53.120;8.764;2023-01-15T06:26:02;20.00;54.60
75049;DHT22;63803;53.120;8.764;2023-01-15T06:28:29;20.10;54.60
75049;DHT22;63803;53.120;8.764;2023-01-15T06:30:55;19.80;54.50
75049;DHT22;63803;53.120;8.764;2023-01-15T06:33:22;21.80;50.30
75049;DHT22;63803;53.120;8.764;2023-01-15T06:35:49;20.80;55.40
75049;DHT22;63803;53.120;8.764;2023-01-15T06:38:15;25.10;57.30
75049;DHT22;63803;53.120;8.764;2023-01-15T06:40:41;20.20;54.70
75049;DHT22;63803;53.120;8.764;2023-01-15T06:43:09;19.60;54.70
75049;DHT22;63803;53.120;8.764;2023-01-15T06:48:39;25.40;55.00
75049;DHT22;63803;53.120;8.764;2023-01-15T06:51:05;21.40;56.30
75049;DHT22;63803;53.120;8.764;2023-01-15T06:53:31;25.40;58.70
75049;DHT22;63803;53.120;8.764;2023-01-15T06:55:58;25.50;57.60
75049;DHT22;63803;53.120;8.764;2023-01-15T06:58:25;23.50;56.80
75049;DHT22;63803;53.120;8.764;2023-01-15T07:00:51;20.60;55.20
75049;DHT22;63803;53.120;8.764;2023-01-15T07:03:22;19.70;54.40
75049;DHT22;63803;53.120;8.764;2023-01-15T07:05:49;25.60;57.30
75049;DHT22;63803;53.120;8.764;2023-01-15T07:08:15;25.10;57.00
75049;DHT22;63803;53.120;8.764;2023-01-15T07:10:41;21.00;54.60
75049;DHT22;63803;53.120;8.764;2023-01-15T07:13:11;20.30;54.40
75049;DHT22;63803;53.120;8.764;2023-01-15T07:15:38;22.70;50.80
75049;DHT22;63803;53.120;8.764;2023-01-15T07:18:04;20.70;54.30
75049;DHT22;63803;53.120;8.764;2023-01-15T07:20:30;22.70;55.70
75049;DHT22;63803;53.120;8.764;2023-01-15T07:22:56;20.60;54.20
75049;DHT22;63803;53.120;8.764;2023-01-15T07:25:23;20.20;54.20
75049;DHT22;63803;53.120;8.764;2023-01-15T07:27:49;25.00;56.80
75049;DHT22;63803;53.120;8.764;2023-01-15T07:30:15;20.80;54.30
75049;DHT22;63803;53.120;8.764;2023-01-15T07:32:41;22.80;55.80
75049;DHT22;63803;53.120;8.764;2023-01-15T07:35:08;20.90;54.50
75049;DHT22;63803;53.120;8.764;2023-01-15T07:37:34;21.30;53.10
75049;DHT22;63803;53.120;8.764;2023-01-15T07:40:01;20.70;54.40
75049;DHT22;63803;53.120;8.764;2023-01-15T07:42:27;26.40;57.90
75049;DHT22;63803;53.120;8.764;2023-01-15T07:45:11;26.30;57.70
75049;DHT22;63803;53.120;8.764;2023-01-15T07:47:56;21.90;55.60
75049;DHT22;63803;53.120;8.764;2023-01-15T07:50:40;20.90;54.70
75049;DHT22;63803;53.120;8.764;2023-01-15T07:53:06;22.10;55.70
75049;DHT22;63803;53.120;8.764;2023-01-15T07:55:34;20.70;54.60
75049;DHT22;63803;53.120;8.764;2023-01-15T07:58:01;21.50;55.00
75049;DHT22;63803;53.120;8.764;2023-01-15T08:00:27;24.90;57.10
75049;DHT22;63803;53.120;8.764;2023-01-15T08:02:53;20.80;55.00
75049;DHT22;63803;53.120;8.764;2023-01-15T08:05:19;21.20;55.00
75049;DHT22;63803;53.120;8.764;2023-01-15T08:07:46;25.00;57.60
75049;DHT22;63803;53.120;8.764;2023-01-15T08:10:13;20.10;55.00
75049;DHT22;63803;53.120;8.764;2023-01-15T08:12:39;23.30;56.30
75049;DHT22;63803;53.120;8.764;2023-01-15T08:15:25;20.80;55.20
75049;DHT22;63803;53.120;8.764;2023-01-15T08:17:51;20.40;55.10
75049;DHT22;63803;53.120;8.764;2023-01-15T08:20:23;22.80;51.30
75049;DHT22;63803;53.120;8.764;2023-01-15T08:22:50;21.10;55.40
75049;DHT22;63803;53.120;8.764;2023-01-15T08:25:19;22.80;52.00
75049;DHT22;63803;53.120;8.764;2023-01-15T08:27:46;20.60;53.70
75049;DHT22;63803;53.120;8.764;2023-01-15T08:30:18;22.50;55.40
75049;DHT22;63803;53.120;8.764;2023-01-15T08:38:53;21.40;55.20
75049;DHT22;63803;53.120;8.764;2023-01-15T08:43:46;22.80;55.50
75049;DHT22;63803;53.120;8.764;2023-01-15T08:46:12;20.70;53.90
75049;DHT22;63803;53.120;8.764;2023-01-15T08:48:38;22.10;54.70
75049;DHT22;63803;53.120;8.764;2023-01-15T08:51:06;22.30;50.30
75049;DHT22;63803;53.120;8.764;2023-01-15T08:53:32;20.40;51.40
75049;DHT22;63803;53.120;8.764;2023-01-15T08:55:58;18.60;49.80
75049;DHT22;63803;53.120;8.764;2023-01-15T08:58:28;18.50;44.70
75049;DHT22;63803;53.120;8.764;2023-01-15T09:00:55;19.10;51.30
75049;DHT22;63803;53.120;8.764;2023-01-15T09:03:24;18.80;51.60
75049;DHT22;63803;53.120;8.764;2023-01-15T09:05:50;19.80;53.10
75049;DHT22;63803;53.120;8.764;2023-01-15T09:08:17;20.10;52.20
75049;DHT22;63803;53.120;8.764;2023-01-15T09:10:43;19.40;51.90
75049;DHT22;63803;53.120;8.764;2023-01-15T09:13:09;19.90;52.00
75049;DHT22;63803;53.120;8.764;2023-01-15T09:15:35;19.30;52.20
75049;DHT22;63803;53.120;8.764;2023-01-15T09:18:01;21.10;53.00
75049;DHT22;63803;53.120;8.764;2023-01-15T09:20:27;22.60;53.60
75049;DHT22;63803;53.120;8.764;2023-01-15T09:22:53;25.20;55.20
75049;DHT22;63803;53.120;8.764;2023-01-15T09:25:19;24.00;51.70
75049;DHT22;63803;53.120;8.764;2023-01-15T09:27:55;22.00;48.60
75049;DHT22;63803;53.120;8.764;2023-01-15T09:30:21;20.40;52.90
75049;DHT22;63803;53.120;8.764;2023-01-15T09:32:48;19.50;52.50
75049;DHT22;63803;53.120;8.764;2023-01-15T09:35:14;20.20;52.60
75049;DHT22;63803;53.120;8.764;2023-01-15T09:37:40;25.30;55.40
75049;DHT22;63803;53.120;8.764;2023-01-15T09:43:12;23.80;54.70
75049;DHT22;63803;53.120;8.764;2023-01-15T09:46:07;21.80;54.30
75049;DHT22;63803;53.120;8.764;2023-01-15T09:54:13;20.60;53.50
75049;DHT22;63803;53.120;8.764;2023-01-15T09:56:42;23.50;55.10
75049;DHT22;63803;53.120;8.764;2023-01-15T09:59:31;24.60;55.50
75049;DHT22;63803;53.120;8.764;2023-01-15T10:01:59;22.10;49.00
75049;DHT22;63803;53.120;8.764;2023-01-15T10:07:58;22.50;54.40
75049;DHT22;63803;53.120;8.764;2023-01-15T10:10:09;19.90;53.20
75049;DHT22;63803;53.120;8.764;2023-01-15T10:12:37;22.10;49.30
75049;DHT22;63803;53.120;8.764;2023-01-15T10:25:51;22.40;52.80
75049;DHT22;63803;53.120;8.764;2023-01-15T10:28:27;22.10;50.00
75049;DHT22;63803;53.120;8.764;2023-01-15T10:30:55;19.80;53.60
75049;DHT22;63803;53.120;8.764;2023-01-15T10:33:48;21.00;54.20
75049;DHT22;63803;53.120;8.764;2023-01-15T10:36:28;20.10;53.60
75049;DHT22;63803;53.120;8.764;2023-01-15T10:44:59;24.40;56.20
75049;DHT22;63803;53.120;8.764;2023-01-15T10:47:31;24.80;56.60
75049;DHT22;63803;53.120;8.764;2023-01-15T10:50:02;25.60;57.00
75049;DHT22;63803;53.120;8.764;2023-01-15T10:52:32;23.70;55.70
75049;DHT22;63803;53.120;8.764;2023-01-15T10:55:16;20.40;54.10
75049;DHT22;63803;53.120;8.764;2023-01-15T10:57:59;20.10;54.00
75049;DHT22;63803;53.120;8.764;2023-01-15T11:00:27;20.70;52.00
75049;DHT22;63803;53.120;8.764;2023-01-15T11:03:02;20.00;54.00
75049;DHT22;63803;53.120;8.764;2023-01-15T11:05:34;22.20;50.10
75049;DHT22;63803;53.120;8.764;2023-01-15T11:08:03;24.50;56.40
75049;DHT22;63803;53.120;8.764;2023-01-15T11:10:31;24.20;56.60
75049;DHT22;63803;53.120;8.764;2023-01-15T11:15:58;21.80;55.30
75049;DHT22;63803;53.120;8.764;2023-01-15T11:18:44;21.20;54.80
75049;DHT22;63803;53.120;8.764;2023-01-15T11:21:29;24.50;56.40
75049;DHT22;63803;53.120;8.764;2023-01-15T11:23:58;22.10;50.10
75049;DHT22;63803;53.120;8.764;2023-01-15T11:26:27;23.20;56.00
75049;DHT22;63803;53.120;8.764;2023-01-15T11:28:55;20.60;53.60
75049;DHT22;63803;53.120;8.764;2023-01-15T11:31:21;20.60;54.30
75049;DHT22;63803;53.120;8.764;2023-01-15T11:34:02;22.10;50.10
75049;DHT22;63803;53.120;8.764;2023-01-15T11:36:30;20.10;54.30
75049;DHT22;63803;53.120;8.764;2023-01-15T11:38:57;20.60;51.60
75049;DHT22;63803;53.120;8.764;2023-01-15T11:41:30;20.90;54.80
75049;DHT22;63803;53.120;8.764;2023-01-15T11:44:19;24.70;56.70
75049;DHT22;63803;53.120;8.764;2023-01-15T11:47:11;20.00;54.10
75049;DHT22;63803;53.120;8.764;2023-01-15T11:49:56;23.80;56.10
75049;DHT22;63803;53.120;8.764;2023-01-15T11:52:45;19.80;54.00
75049;DHT22;63803;53.120;8.764;2023-01-15T11:55:17;20.20;54.50
75049;DHT22;63803;53.120;8.764;2023-01-15T11:57:44;22.20;49.90
75049;DHT22;63803;53.120;8.764;2023-01-15T12:00:26;21.00;54.10
75049;DHT22;63803;53.120;8.764;2023-01-15T12:02:58;24.40;56.10
75049;DHT22;63803;53.120;8.764;2023-01-15T12:05:30;22.10;55.50
75049;DHT22;63803;53.120;8.764;2023-01-15T12:08:03;25.60;57.50
75049;DHT22;63803;53.120;8.764;2023-01-15T12:10:44;20.20;55.00
75049;DHT22;63803;53.120;8.764;2023-01-15T12:16:41;20.20;57.00
75049;DHT22;63803;53.120;8.764;2023-01-15T12:27:49;25.80;64.30
75049;DHT22;63803;53.120;8.764;2023-01-15T12:33:15;24.80;63.90
75049;DHT22;63803;53.120;8.764;2023-01-15T12:36:31;20.40;55.80
75049;DHT22;63803;53.120;8.764;2023-01-15T12:38:58;21.30;61.10
75049;DHT22;63803;53.120;8.764;2023-01-15T12:41:34;20.10;60.70
75049;DHT22;63803;53.120;8.764;2023-01-15T12:44:52;23.60;62.90
75049;DHT22;63803;53.120;8.764;2023-01-15T12:50:43;21.20;57.10
75049;DHT22;63803;53.120;8.764;2023-01-15T12:53:12;21.40;61.80
75049;DHT22;63803;53.120;8.764;2023-01-15T13:07:26;20.20;61.20
75049;DHT22;63803;53.120;8.764;2023-01-15T13:12:41;25.60;64.10
75049;DHT22;63803;53.120;8.764;2023-01-15T13:15:13;20.40;61.50
75049;DHT22;63803;53.120;8.764;2023-01-15T13:17:54;24.00;63.40
75049;DHT22;63803;53.120;8.764;2023-01-15T13:20:42;20.30;61.60
75049;DHT22;63803;53.120;8.764;2023-01-15T13:26:21;20.30;61.40
75049;DHT22;63803;53.120;8.764;2023-01-15T13:29:11;20.30;61.60
75049;DHT22;63803;53.120;8.764;2023-01-15T13:31:44;25.50;64.40
75049;DHT22;63803;53.120;8.764;2023-01-15T13:34:34;23.00;60.00
75049;DHT22;63803;53.120;8.764;2023-01-15T13:37:34;20.60;55.20
75049;DHT22;63803;53.120;8.764;2023-01-15T13:40:11;19.70;57.00
75049;DHT22;63803;53.120;8.764;2023-01-15T13:42:39;19.50;57.40
75049;DHT22;63803;53.120;8.764;2023-01-15T13:48:12;20.10;53.50
75049;DHT22;63803;53.120;8.764;2023-01-15T13:50:51;19.80;58.20
75049;DHT22;63803;53.120;8.764;2023-01-15T13:56:01;20.30;58.10
75049;DHT22;63803;53.120;8.764;2023-01-15T13:59:33;23.50;60.00
75049;DHT22;63803;53.120;8.764;2023-01-15T14:09:03;20.20;59.00
75049;DHT22;63803;53.120;8.764;2023-01-15T14:22:51;19.90;59.80
75049;DHT22;63803;53.120;8.764;2023-01-15T14:25:29;20.20;59.70
75049;DHT22;63803;53.120;8.764;2023-01-15T14:35:50;21.20;60.70
75049;DHT22;63803;53.120;8.764;2023-01-15T14:38:19;22.80;61.80
75049;DHT22;63803;53.120;8.764;2023-01-15T14:43:20;21.20;61.10
75049;DHT22;63803;53.120;8.764;2023-01-15T14:45:47;20.70;58.90
75049;DHT22;63803;53.120;8.764;2023-01-15T14:48:20;20.50;60.50
75049;DHT22;63803;53.120;8.764;2023-01-15T14:51:12;23.50;62.50
75049;DHT22;63803;53.120;8.764;2023-01-15T14:53:45;19.80;61.00
75049;DHT22;63803;53.120;8.764;2023-01-15T14:56:24;20.30;60.60
75049;DHT22;63803;53.120;8.764;2023-01-15T14:59:08;20.60;60.90
75049;DHT22;63803;53.120;8.764;2023-01-15T15:01:51;20.90;61.30
75049;DHT22;63803;53.120;8.764;2023-01-15T15:04:39;20.20;61.60
75049;DHT22;63803;53.120;8.764;2023-01-15T15:12:56;20.80;62.00
75049;DHT22;63803;53.120;8.764;2023-01-15T15:22:50;20.20;61.90
75049;DHT22;63803;53.120;8.764;2023-01-15T15:25:23;23.40;63.70
75049;DHT22;63803;53.120;8.764;2023-01-15T15:28:10;21.50;62.80
75049;DHT22;63803;53.120;8.764;2023-01-15T15:30:42;25.50;65.20
75049;DHT22;63803;53.120;8.764;2023-01-15T15:33:20;21.90;58.10
75049;DHT22;63803;53.120;8.764;2023-01-15T15:35:51;20.00;61.80
75049;DHT22;63803;53.120;8.764;2023-01-15T15:38:19;19.90;62.20
75049;DHT22;63803;53.120;8.764;2023-01-15T15:40:53;21.20;62.20
75049;DHT22;63803;53.120;8.764;2023-01-15T15:43:26;21.70;59.70
75049;DHT22;63803;53.120;8.764;2023-01-15T15:46:27;23.90;63.70
75049;DHT22;63803;53.120;8.764;2023-01-15T15:49:12;24.10;64.10
75049;DHT22;63803;53.120;8.764;2023-01-15T15:51:44;19.90;61.70
75049;DHT22;63803;53.120;8.764;2023-01-15T15:54:12;20.90;63.30
75049;DHT22;63803;53.120;8.764;2023-01-15T15:59:39;19.80;61.40
75049;DHT22;63803;53.120;8.764;2023-01-15T16:02:21;24.10;64.20
75049;DHT22;63803;53.120;8.764;2023-01-15T16:07:27;22.60;62.80
75049;DHT22;63803;53.120;8.764;2023-01-15T16:09:59;23.10;63.10
75049;DHT22;63803;53.120;8.764;2023-01-15T16:12:33;24.00;63.60
75049;DHT22;63803;53.120;8.764;2023-01-15T16:15:01;22.60;62.90
75049;DHT22;63803;53.120;8.764;2023-01-15T16:17:29;22.00;57.60
75049;DHT22;63803;53.120;8.764;2023-01-15T16:19:55;22.00;58.10
75049;DHT22;63803;53.120;8.764;2023-01-15T16:22:22;20.60;61.70
75049;DHT22;63803;53.120;8.764;2023-01-15T16:24:56;20.20;62.00
75049;DHT22;63803;53.120;8.764;2023-01-15T16:27:26;22.10;57.60
75049;DHT22;63803;53.120;8.764;2023-01-15T16:32:26;22.10;57.50
75049;DHT22;63803;53.120;8.764;2023-01-15T16:35:32;20.40;61.30
75049;DHT22;63803;53.120;8.764;2023-01-15T16:37:54;22.10;57.50
75049;DHT22;63803;53.120;8.764;2023-01-15T16:40:29;22.10;57.40
75049;DHT22;63803;53.120;8.764;2023-01-15T16:43:12;22.10;57.50
75049;DHT22;63803;53.120;8.764;2023-01-15T16:48:24;25.00;64.40
75049;DHT22;63803;53.120;8.764;2023-01-15T16:50:52;20.50;61.60
75049;DHT22;63803;53.120;8.764;2023-01-15T16:56:01;25.80;65.10
75049;DHT22;63803;53.120;8.764;2023-01-15T16:58:38;25.60;65.00
75049;DHT22;63803;53.120;8.764;2023-01-15T17:06:25;24.40;64.30
75049;DHT22;63803;53.120;8.764;2023-01-15T17:08:53;25.80;65.10
75049;DHT22;63803;53.120;8.764;2023-01-15T17:11:27;24.70;64.50
75049;DHT22;63803;53.120;8.764;2023-01-15T17:14:30;20.60;58.10
75049;DHT22;63803;53.120;8.764;2023-01-15T17:17:15;19.80;61.60
75049;DHT22;63803;53.120;8.764;2023-01-15T17:19:42;25.20;65.00
75049;DHT22;63803;53.120;8.764;2023-01-15T17:22:30;22.10;57.60
75049;DHT22;63803;53.120;8.764;2023-01-15T17:24:58;20.70;61.90
75049;DHT22;63803;53.120;8.764;2023-01-15T17:27:26;20.50;57.50
75049;DHT22;63803;53.120;8.764;2023-01-15T17:29:53;19.90;62.30
75049;DHT22;63803;53.120;8.764;2023-01-15T17:39:41;22.10;62.10
75049;DHT22;63803;53.120;8.764;2023-01-15T17:42:13;20.20;60.60
75049;DHT22;63803;53.120;8.764;2023-01-15T17:44:39;21.00;60.80
75049;DHT22;63803;53.120;8.764;2023-01-15T17:47:05;24.80;63.20
75049;DHT22;63803;53.120;8.764;2023-01-15T17:49:31;20.60;60.50
75049;DHT22;63803;53.120;8.764;2023-01-15T17:51:58;24.40;62.70
75049;DHT22;63803;53.120;8.764;2023-01-15T17:54:24;19.80;60.20
75049;DHT22;63803;53.120;8.764;2023-01-15T17:57:09;20.70;60.10
75049;DHT22;63803;53.120;8.764;2023-01-15T17:59:53;20.00;60.30
75049;DHT22;63803;53.120;8.764;2023-01-15T18:05:23;21.70;61.40
75049;DHT22;63803;53.120;8.764;2023-01-15T18:07:55;24.80;62.80
75049;DHT22;63803;53.120;8.764;2023-01-15T18:10:23;20.10;60.20
75049;DHT22;63803;53.120;8.764;2023-01-15T18:12:49;20.80;60.70
75049;DHT22;63803;53.120;8.764;2023-01-15T18:15:16;23.00;61.60
75049;DHT22;63803;53.120;8.764;2023-01-15T18:20:10;20.30;60.10
75049;DHT22;63803;53.120;8.764;2023-01-15T18:22:36;20.30;60.20
75049;DHT22;63803;53.120;8.764;2023-01-15T18:25:03;19.80;59.70
75049;DHT22;63803;53.120;8.764;2023-01-15T18:27:29;22.00;56.60
75049;DHT22;63803;53.120;8.764;2023-01-15T18:29:56;20.50;59.80
75049;DHT22;63803;53.120;8.764;2023-01-15T18:32:30;20.40;60.10
75049;DHT22;63803;53.120;8.764;2023-01-15T18:34:56;20.50;59.80
75049;DHT22;63803;53.120;8.764;2023-01-15T18:37:22;20.30;59.80
75049;DHT22;63803;53.120;8.764;2023-01-15T18:39:48;20.60;59.90
75049;DHT22;63803;53.120;8.764;2023-01-15T18:42:14;20.60;59.90
75049;DHT22;63803;53.120;8.764;2023-01-15T18:44:40;20.00;55.50
75049;DHT22;63803;53.120;8.764;2023-01-15T18:47:26;20.20;59.60
75049;DHT22;63803;53.120;8.764;2023-01-15T18:52:20;23.70;61.70
75049;DHT22;63803;53.120;8.764;2023-01-15T18:55:05;21.90;55.40
75049;DHT22;63803;53.120;8.764;2023-01-15T18:57:32;22.40;60.50
75049;DHT22;63803;53.120;8.764;2023-01-15T18:59:58;20.00;59.30
75049;DHT22;63803;53.120;8.764;2023-01-15T19:02:24;23.00;61.10
75049;DHT22;63803;53.120;8.764;2023-01-15T19:04:50;23.60;61.30
75049;DHT22;63803;53.120;8.764;2023-01-15T19:07:16;19.50;59.00
75049;DHT22;63803;53.120;8.764;2023-01-15T19:09:42;19.70;59.10
75049;DHT22;63803;53.120;8.764;2023-01-15T19:14:35;20.30;59.20
75049;DHT22;63803;53.120;8.764;2023-01-15T19:17:22;19.60;59.20
75049;DHT22;63803;53.120;8.764;2023-01-15T19:20:15;25.40;62.10
75049;DHT22;63803;53.120;8.764;2023-01-15T19:22:41;25.00;61.90
75049;DHT22;63803;53.120;8.764;2023-01-15T19:25:30;21.80;59.80
75049;DHT22;63803;53.120;8.764;2023-01-15T19:27:57;20.50;59.10
75049;DHT22;63803;53.120;8.764;2023-01-15T19:30:27;24.80;61.60
75049;DHT22;63803;53.120;8.764;2023-01-15T19:32:54;20.20;58.90
75049;DHT22;63803;53.120;8.764;2023-01-15T19:35:20;24.60;61.20
75049;DHT22;63803;53.120;8.764;2023-01-15T19:37:46;23.50;60.50
75049;DHT22;63803;53.120;8.764;2023-01-15T19:40:14;22.00;54.80
75049;DHT22;63803;53.120;8.764;2023-01-15T19:45:31;19.90;58.50
75049;DHT22;63803;53.120;8.764;2023-01-15T19:48:16;24.90;61.10
75049;DHT22;63803;53.120;8.764;2023-01-15T19:51:00;19.90;58.50
75049;DHT22;63803;53.120;8.764;2023-01-15T19:53:26;20.00;58.50